Humidity-temperature Sensor

Selected Measurement Type: Air Temperature

 
Air Temperature [°C]     6 entries per hour
Showing data from 5/4/2015 (00:00:00 Z) to 5/3/2015 (00:01:00 Z)
Previous Next [ Day | 3-Days | 7-Days ]
First Last
Prev [ Day | 3-Days | 7-Days ] Next
First Last

Start Time:     :
End Time:     :     
Time (in GMT) :00 :50 :40 :30 :20 :10
Previous Next [ Day | 3-Days | 7-Days ]
First Last
Prev [ Day | 3-Days | 7-Days ] Next
First Last


123 => good data
MM => data is determined as missing
-- => data not received/configured
Back to Top Back to Top
5/4/2015 00:00 to 23:10 29.45 29.47 29.14 28.88 28.85 28.86
5/3/2015 23:00 to 22:10 28.67 28.65 28.71 28.75 28.40 27.85
5/3/2015 22:00 to 21:10 27.85 27.91 27.95 27.56 27.31 27.21
5/3/2015 21:00 to 20:10 27.62 27.90 27.91 28.37 28.87 28.92
5/3/2015 20:00 to 19:10 28.87 28.87 28.85 28.88 28.84 28.83
5/3/2015 19:00 to 18:10 28.83 28.78 28.97 28.83 28.85 28.84
5/3/2015 18:00 to 17:10 28.83 28.82 28.75 28.70 28.73 28.69
5/3/2015 17:00 to 16:10 28.76 28.72 28.64 28.61 28.47 28.44
5/3/2015 16:00 to 15:10 28.56 28.54 28.55 28.27 28.27 28.26
5/3/2015 15:00 to 14:10 28.28 28.30 28.30 28.29 28.33 28.42
5/3/2015 14:00 to 13:10 28.53 28.24 28.03 28.01 28.04 28.03
5/3/2015 13:00 to 12:10 27.95 27.94 27.93 27.97 27.98 27.97
5/3/2015 12:00 to 11:10 27.94 28.04 27.98 28.04 27.95 28.00
5/3/2015 11:00 to 10:10 27.97 27.95 27.96 27.89 27.88 27.87
5/3/2015 10:00 to 9:10 27.87 27.82 27.84 27.77 27.82 27.76
5/3/2015 09:00 to 8:10 -- -- -- -- -- --
5/3/2015 08:00 to 7:10 27.76 27.67 27.72 27.84 27.82 28.20
5/3/2015 07:00 to 6:10 28.11 28.11 28.08 28.10 28.07 28.07
5/3/2015 06:00 to 5:10 28.10 28.05 28.09 28.09 28.15 28.11
5/3/2015 05:00 to 4:10 28.13 28.11 28.12 28.14 28.22 28.09
5/3/2015 04:00 to 3:10 28.19 28.03 28.09 28.00 28.09 28.10
5/3/2015 03:00 to 2:10 28.04 27.97 27.99 27.88 27.83 27.74
5/3/2015 02:00 to 1:10 27.63 27.55 27.28 27.66 28.45 28.33
5/3/2015 01:00 to 0:10 28.39 28.53 28.76 28.88 28.58 28.62